createdAt,value
2022-11-12T00:01:45.069Z,97832.06
2022-11-12T00:04:18.115Z,97834.22
2022-11-12T00:06:50.898Z,97828.06
2022-11-12T00:09:23.772Z,97826.97
2022-11-12T00:11:56.860Z,97819.75
2022-11-12T00:14:29.709Z,97828.56
2022-11-12T00:17:04.004Z,97838.97
2022-11-12T00:19:36.829Z,97834.22
2022-11-12T00:22:09.835Z,97824.59
2022-11-12T00:24:42.665Z,97828.38
2022-11-12T00:27:15.841Z,97828.66
2022-11-12T00:29:48.646Z,97836.72
2022-11-12T00:32:22.843Z,97835.91
2022-11-12T00:34:55.668Z,97834.31
2022-11-12T00:37:28.588Z,97838.09
2022-11-12T00:40:01.614Z,97830.66
2022-11-12T00:42:35.470Z,97836.31
2022-11-12T00:45:09.761Z,97840.06
2022-11-12T00:47:44.095Z,97842.75
2022-11-12T00:50:17.157Z,97839.09
2022-11-12T00:52:52.821Z,97835.63
2022-11-12T00:55:25.696Z,97834.34
2022-11-12T00:57:59.517Z,97840.00
2022-11-12T01:00:32.429Z,97838.69
2022-11-12T01:03:06.724Z,97839.81
2022-11-12T01:05:39.700Z,97848.94
2022-11-12T01:08:12.499Z,97843.09
2022-11-12T01:10:45.329Z,97840.19
2022-11-12T01:13:18.126Z,97835.63
2022-11-12T01:15:51.105Z,97837.34
2022-11-12T01:18:25.814Z,97832.28
2022-11-12T01:21:01.467Z,97834.16
2022-11-12T01:23:35.131Z,97824.81
2022-11-12T01:26:09.585Z,97818.94
2022-11-12T01:28:43.176Z,97819.28
2022-11-12T01:31:18.022Z,97826.81
2022-11-12T01:33:56.011Z,97820.97
2022-11-12T01:36:32.081Z,97816.19
2022-11-12T01:39:06.232Z,97806.88
2022-11-12T01:41:40.648Z,97824.03
2022-11-12T01:44:19.727Z,97815.50
2022-11-12T01:47:03.452Z,97812.31
2022-11-12T01:49:51.757Z,97808.38
2022-11-12T01:52:31.280Z,97807.06
2022-11-12T01:55:08.596Z,97803.59
2022-11-12T01:57:46.883Z,97806.88
2022-11-12T02:00:20.044Z,97803.38
2022-11-12T02:02:56.538Z,97799.91
2022-11-12T02:05:32.666Z,97801.81
2022-11-12T02:08:08.024Z,97799.91
2022-11-12T02:10:41.724Z,97795.69
2022-11-12T02:13:32.920Z,97801.03
2022-11-12T02:16:07.106Z,97800.25
2022-11-12T02:18:39.957Z,97794.88
2022-11-12T02:21:14.127Z,97794.56
2022-11-12T02:23:48.730Z,97798.53
2022-11-12T02:26:21.531Z,97796.16
2022-11-12T02:28:54.633Z,97800.13
2022-11-12T02:31:27.409Z,97793.97
2022-11-12T02:34:00.506Z,97801.44
2022-11-12T02:36:33.330Z,97796.88
2022-11-12T02:39:07.839Z,97794.66
2022-11-12T02:41:40.722Z,97790.09
2022-11-12T02:44:13.708Z,97790.28
2022-11-12T02:46:46.556Z,97790.81
2022-11-12T02:49:19.465Z,97785.16
2022-11-12T02:51:52.343Z,97787.22
2022-11-12T02:54:26.917Z,97790.38
2022-11-12T02:56:59.698Z,97780.75
2022-11-12T02:59:32.905Z,97780.97
2022-11-12T03:02:05.710Z,97783.31
2022-11-12T03:04:38.682Z,97786.22
2022-11-12T03:07:11.859Z,97786.72
2022-11-12T03:09:46.086Z,97785.31
2022-11-12T03:12:19.323Z,97785.00
2022-11-12T03:14:52.170Z,97780.44
2022-11-12T03:17:25.348Z,97782.03
2022-11-12T03:19:58.238Z,97785.19
2022-11-12T03:22:31.055Z,97782.53
2022-11-12T03:25:06.631Z,97774.19
2022-11-12T03:27:39.480Z,97773.09
2022-11-12T03:30:13.095Z,97773.09
2022-11-12T03:32:45.934Z,97766.63
2022-11-12T03:35:18.972Z,97769.78
2022-11-12T03:37:51.773Z,97765.50
2022-11-12T03:40:25.972Z,97764.44
2022-11-12T03:42:58.837Z,97757.47
2022-11-12T03:45:31.709Z,97756.72
2022-11-12T03:48:04.634Z,97758.59
2022-11-12T03:50:37.442Z,97769.78
2022-11-12T03:53:10.267Z,97760.16
2022-11-12T03:55:44.700Z,97764.13
2022-11-12T03:58:17.591Z,97751.81
2022-11-12T04:00:50.441Z,97755.59
2022-11-12T04:03:23.290Z,97761.75
2022-11-12T04:06:13.793Z,97756.38
2022-11-12T04:08:46.625Z,97771.09
2022-11-12T04:11:21.233Z,97763.03
2022-11-12T04:13:54.249Z,97758.75
2022-11-12T04:16:45.003Z,97763.84
2022-11-12T04:19:35.236Z,97755.50
2022-11-12T04:22:10.156Z,97749.34
2022-11-12T04:25:01.992Z,97750.94
2022-11-12T04:27:36.413Z,97747.16
2022-11-12T04:30:19.364Z,97745.56
2022-11-12T04:32:54.707Z,97747.16
2022-11-12T04:35:28.495Z,97753.59
2022-11-12T04:38:01.400Z,97749.84
2022-11-12T04:40:52.202Z,97749.84
2022-11-12T04:43:44.582Z,97737.22
2022-11-12T04:46:17.412Z,97738.03
2022-11-12T04:48:50.294Z,97738.78
2022-11-12T04:51:40.803Z,97732.66
2022-11-12T04:54:13.979Z,97726.50
2022-11-12T04:56:46.874Z,97725.38
2022-11-12T04:59:21.376Z,97722.69
2022-11-12T05:01:54.197Z,97725.38
2022-11-12T05:04:29.098Z,97727.28
2022-11-12T05:07:02.727Z,97726.97
2022-11-12T05:09:35.668Z,97731.06
2022-11-12T05:12:08.979Z,97721.13
2022-11-12T05:14:43.423Z,97728.06
2022-11-12T05:17:16.279Z,97726.50
2022-11-12T05:19:49.074Z,97730.28
2022-11-12T05:22:42.695Z,97726.78
2022-11-12T05:25:14.795Z,97723.03
2022-11-12T05:27:48.019Z,97723.03
2022-11-12T05:30:22.553Z,97723.50
2022-11-12T05:32:55.611Z,97723.81
2022-11-12T05:35:28.482Z,97723.03
2022-11-12T05:38:01.604Z,97731.88
2022-11-12T05:40:34.480Z,97722.69
2022-11-12T05:43:07.448Z,97727.28
2022-11-12T05:45:43.630Z,97727.28
2022-11-12T05:48:21.513Z,97730.28
2022-11-12T05:51:12.595Z,97725.22
2022-11-12T05:53:46.335Z,97736.81
2022-11-12T05:56:19.521Z,97735.84
2022-11-12T05:58:52.292Z,97740.84
2022-11-12T06:01:26.840Z,97746.28
2022-11-12T06:03:59.673Z,97757.72
2022-11-12T06:06:32.580Z,97751.19
2022-11-12T06:09:06.317Z,97756.97
2022-11-12T06:11:40.376Z,97756.88
2022-11-12T06:14:13.407Z,97762.31
2022-11-12T06:16:47.778Z,97768.06
2022-11-12T06:19:20.605Z,97763.13
2022-11-12T06:21:53.408Z,97764.13
2022-11-12T06:24:33.653Z,97758.34
2022-11-12T06:27:08.031Z,97764.41
2022-11-12T06:29:40.999Z,97761.31
2022-11-12T06:32:15.357Z,97760.59
2022-11-12T06:34:48.199Z,97758.09
2022-11-12T06:37:22.122Z,97752.34
2022-11-12T06:39:54.904Z,97759.66
2022-11-12T06:42:27.748Z,97759.44
2022-11-12T06:45:00.566Z,97759.25
2022-11-12T06:47:34.834Z,97755.25
2022-11-12T06:50:07.987Z,97762.59
2022-11-12T06:52:40.845Z,97760.72
2022-11-12T06:55:13.632Z,97755.13
2022-11-12T06:57:46.506Z,97750.06
2022-11-12T07:00:20.158Z,97745.00
2022-11-12T07:02:54.427Z,97754.91
2022-11-12T07:05:27.245Z,97756.78
2022-11-12T07:08:00.090Z,97759.97
2022-11-12T07:10:33.253Z,97758.88
2022-11-12T07:13:06.077Z,97762.88
2022-11-12T07:15:38.867Z,97780.41
2022-11-12T07:18:13.195Z,97785.69
2022-11-12T07:20:46.005Z,97774.09
2022-11-12T07:23:18.937Z,97781.84
2022-11-12T07:25:57.076Z,97778.38
2022-11-12T07:28:31.013Z,97773.13
2022-11-12T07:31:06.026Z,97765.38
2022-11-12T07:33:40.799Z,97774.78
2022-11-12T07:36:15.825Z,97783.38
2022-11-12T07:38:51.702Z,97775.66
2022-11-12T07:41:26.327Z,97763.56
2022-11-12T07:43:59.090Z,97769.44
2022-11-12T07:46:31.884Z,97771.53
2022-11-12T07:49:06.190Z,97770.34
2022-11-12T07:51:39.045Z,97766.81
2022-11-12T07:54:12.190Z,97762.47
2022-11-12T07:56:44.990Z,97758.91
2022-11-12T07:59:17.870Z,97777.56
2022-11-12T08:01:50.720Z,97783.41
2022-11-12T08:04:24.939Z,97781.72
2022-11-12T08:06:57.865Z,97783.91
2022-11-12T08:09:30.842Z,97787.09
2022-11-12T08:12:03.655Z,97789.47
2022-11-12T08:14:36.702Z,97790.44
2022-11-12T08:17:09.545Z,97791.75
2022-11-12T08:19:43.917Z,97788.22
2022-11-12T08:22:16.740Z,97783.53
2022-11-12T08:24:49.578Z,97792.59
2022-11-12T08:27:22.373Z,97776.41
2022-11-12T08:29:55.339Z,97773.94
2022-11-12T08:32:28.213Z,97776.81
2022-11-12T08:35:02.669Z,97773.25
2022-11-12T08:37:35.467Z,97774.81
2022-11-12T08:40:09.534Z,97768.88
2022-11-12T08:42:42.626Z,97779.78
2022-11-12T08:45:16.152Z,97788.50
2022-11-12T08:47:49.039Z,97786.84
2022-11-12T08:50:23.281Z,97786.16
2022-11-12T08:53:00.569Z,97784.34
2022-11-12T08:55:34.520Z,97786.91
2022-11-12T08:58:08.037Z,97784.03
2022-11-12T09:00:43.392Z,97778.75
2022-11-12T09:03:18.353Z,97787.66
2022-11-12T09:05:53.591Z,97788.03
2022-11-12T09:08:27.010Z,97793.31
2022-11-12T09:11:00.209Z,97797.19
2022-11-12T09:13:33.859Z,97796.47
2022-11-12T09:16:10.538Z,97798.44
2022-11-12T09:18:43.373Z,97797.00
2022-11-12T09:21:18.014Z,97787.75
2022-11-12T09:23:51.345Z,97795.19
2022-11-12T09:26:24.883Z,97791.31
2022-11-12T09:28:57.721Z,97779.63
2022-11-12T09:31:30.562Z,97778.25
2022-11-12T09:34:03.496Z,97781.09
2022-11-12T09:36:39.941Z,97785.25
2022-11-12T09:39:12.903Z,97795.06
2022-11-12T09:41:45.806Z,97799.53
2022-11-12T09:44:22.196Z,97794.31
2022-11-12T09:47:00.511Z,97795.31
2022-11-12T09:49:37.730Z,97792.19
2022-11-12T09:52:20.709Z,97799.00
2022-11-12T09:55:02.570Z,97788.44
2022-11-12T09:57:35.224Z,97791.78
2022-11-12T10:00:18.074Z,97787.25
2022-11-12T10:02:56.835Z,97784.44
2022-11-12T10:05:35.424Z,97793.13
2022-11-12T10:08:23.542Z,97788.25
2022-11-12T10:11:09.599Z,97786.03
2022-11-12T10:13:52.586Z,97786.03
2022-11-12T10:16:43.755Z,97784.13
2022-11-12T10:19:40.864Z,97779.28
2022-11-12T10:22:30.294Z,97771.09
2022-11-12T10:25:16.029Z,97769.06
2022-11-12T10:27:50.597Z,97758.63
2022-11-12T10:30:25.782Z,97751.22
2022-11-12T10:32:58.622Z,97751.56
2022-11-12T10:35:31.529Z,97747.00
2022-11-12T10:38:08.115Z,97744.94
2022-11-12T10:40:43.445Z,97737.69
2022-11-12T10:43:24.567Z,97731.50
2022-11-12T10:46:19.154Z,97731.19
2022-11-12T10:48:57.825Z,97740.06
2022-11-12T10:51:33.578Z,97734.19
2022-11-12T10:54:23.265Z,97730.72
2022-11-12T10:56:57.479Z,97728.63
2022-11-12T10:59:30.313Z,97728.97
2022-11-12T11:02:03.467Z,97726.59
2022-11-12T11:04:37.984Z,97727.22
2022-11-12T11:07:22.576Z,97731.16
2022-11-12T11:09:57.129Z,97717.84
2022-11-12T11:12:33.152Z,97720.50
2022-11-12T11:15:08.362Z,97718.44
2022-11-12T11:17:41.223Z,97706.69
2022-11-12T11:20:20.910Z,97707.78
2022-11-12T11:22:57.885Z,97700.66
2022-11-12T11:25:32.906Z,97701.56
2022-11-12T11:28:19.072Z,97694.44
2022-11-12T11:30:57.724Z,97693.78
2022-11-12T11:33:46.137Z,97684.25
2022-11-12T11:36:25.616Z,97687.41
2022-11-12T11:39:04.537Z,97684.06
2022-11-12T11:41:52.342Z,97685.66
2022-11-12T11:44:38.220Z,97681.50
2022-11-12T11:47:33.979Z,97675.78
2022-11-12T11:50:22.283Z,97674.69
2022-11-12T11:53:07.764Z,97675.47
2022-11-12T11:55:50.885Z,97663.91
2022-11-12T11:58:40.784Z,97678.50
2022-11-12T12:01:21.905Z,97674.09
2022-11-12T12:04:25.823Z,97659.66
2022-11-12T12:07:10.073Z,97663.34
2022-11-12T12:09:50.300Z,97658.59
2022-11-12T12:12:38.223Z,97658.94
2022-11-12T12:15:28.602Z,97658.00
2022-11-12T12:18:13.616Z,97660.22
2022-11-12T12:20:53.737Z,97646.59
2022-11-12T12:23:31.169Z,97655.34
2022-11-12T12:26:10.946Z,97653.31
2022-11-12T12:28:49.312Z,97645.06
2022-11-12T12:31:27.211Z,97638.88
2022-11-12T12:34:06.398Z,97632.28
2022-11-12T12:36:42.596Z,97630.22
2022-11-12T12:39:18.899Z,97620.88
2022-11-12T12:41:57.433Z,97631.63
2022-11-12T12:44:58.026Z,97618.84
2022-11-12T12:47:35.471Z,97624.38
2022-11-12T12:50:15.362Z,97617.78
2022-11-12T12:53:05.241Z,97614.59
2022-11-12T12:55:41.771Z,97606.69
2022-11-12T12:58:22.147Z,97605.56
2022-11-12T13:01:02.139Z,97594.22
2022-11-12T13:04:04.527Z,97601.50
2022-11-12T13:06:42.207Z,97604.81
2022-11-12T13:09:25.713Z,97608.66
2022-11-12T13:12:15.923Z,97603.91
2022-11-12T13:14:54.538Z,97595.31
2022-11-12T13:17:51.432Z,97591.38
2022-11-12T13:20:41.362Z,97585.53
2022-11-12T13:24:04.853Z,97588.06
2022-11-12T13:26:57.273Z,97588.56
2022-11-12T13:29:45.861Z,97584.63
2022-11-12T13:32:39.330Z,97583.69
2022-11-12T13:35:31.242Z,97577.69
2022-11-12T13:38:06.498Z,97583.25
2022-11-12T13:40:54.224Z,97577.69
2022-11-12T13:43:37.198Z,97581.06
2022-11-12T13:46:26.568Z,97580.41
2022-11-12T13:49:01.552Z,97584.38
2022-11-12T13:51:42.941Z,97584.38
2022-11-12T13:54:26.835Z,97576.16
2022-11-12T14:00:23.938Z,97576.66
2022-11-12T14:02:59.799Z,97574.28
2022-11-12T14:05:34.820Z,97571.09
2022-11-12T14:08:28.229Z,97572.69
2022-11-12T14:11:17.474Z,97565.72
2022-11-12T14:14:02.748Z,97563.81
2022-11-12T14:16:44.767Z,97568.09
2022-11-12T14:19:39.796Z,97565.41
2022-11-12T14:22:16.139Z,97561.78
2022-11-12T14:24:52.374Z,97557.84
2022-11-12T14:27:42.960Z,97561.94
2022-11-12T14:30:20.841Z,97557.06
2022-11-12T14:33:00.266Z,97558.47
2022-11-12T14:35:37.477Z,97555.97
2022-11-12T14:38:19.662Z,97560.06
2022-11-12T14:40:55.418Z,97555.66
2022-11-12T14:43:34.917Z,97548.53
2022-11-12T14:46:20.507Z,97552.19
2022-11-12T14:48:58.901Z,97560.88
2022-11-12T14:51:47.820Z,97547.91
2022-11-12T14:54:31.316Z,97550.09
2022-11-12T14:57:05.550Z,97554.53
2022-11-12T14:59:40.051Z,97562.59
2022-11-12T15:02:42.701Z,97552.47
2022-11-12T15:05:16.689Z,97545.19
2022-11-12T15:07:56.112Z,97553.25
2022-11-12T15:10:31.087Z,97542.34
2022-11-12T15:13:07.303Z,97545.50
2022-11-12T15:15:52.768Z,97532.72
2022-11-12T15:18:28.565Z,97538.09
2022-11-12T15:21:14.017Z,97529.56
2022-11-12T15:23:51.291Z,97528.28
2022-11-12T15:26:33.083Z,97525.44
2022-11-12T15:29:15.205Z,97515.81
2022-11-12T15:31:50.241Z,97517.38
2022-11-12T15:34:32.132Z,97525.44
2022-11-12T15:37:07.237Z,97520.69
2022-11-12T15:39:42.751Z,97515.63
2022-11-12T15:42:19.105Z,97514.69
2022-11-12T15:44:53.238Z,97517.22
2022-11-12T15:47:28.874Z,97512.78
2022-11-12T15:50:02.028Z,97512.31
2022-11-12T15:52:36.267Z,97507.25
2022-11-12T15:55:10.863Z,97513.25
2022-11-12T15:57:47.266Z,97509.28
2022-11-12T16:00:22.341Z,97511.53
2022-11-12T16:02:59.711Z,97513.53
2022-11-12T16:05:32.527Z,97506.94
2022-11-12T16:08:07.584Z,97499.50
2022-11-12T16:10:42.445Z,97506.28
2022-11-12T16:13:25.395Z,97496.19
2022-11-12T16:15:58.729Z,97492.53
2022-11-12T16:18:31.917Z,97503.56
2022-11-12T16:21:06.407Z,97498.50
2022-11-12T16:23:45.453Z,97490.47
2022-11-12T16:26:24.703Z,97489.22
2022-11-12T16:28:57.824Z,97488.72
2022-11-12T16:31:30.792Z,97495.69
2022-11-12T16:34:03.923Z,97484.75
2022-11-12T16:36:37.719Z,97486.66
2022-11-12T16:39:14.492Z,97486.34
2022-11-12T16:41:47.302Z,97471.34
2022-11-12T16:44:20.161Z,97467.56
2022-11-12T16:46:53.074Z,97471.84
2022-11-12T16:49:32.149Z,97466.47
2022-11-12T16:52:13.391Z,97465.38
2022-11-12T16:54:48.026Z,97485.25
2022-11-12T16:57:21.070Z,97490.94
2022-11-12T16:59:55.062Z,97477.66
2022-11-12T17:02:28.119Z,97472.91
2022-11-12T17:05:03.668Z,97471.63
2022-11-12T17:07:36.545Z,97471.50
2022-11-12T17:10:17.369Z,97462.66
2022-11-12T17:12:50.443Z,97469.41
2022-11-12T17:15:23.470Z,97459.47
2022-11-12T17:17:56.260Z,97460.56
2022-11-12T17:20:29.148Z,97462.94
2022-11-12T17:23:03.241Z,97464.84
2022-11-12T17:25:37.732Z,97457.28
2022-11-12T17:28:10.534Z,97467.72
2022-11-12T17:30:45.717Z,97463.94
2022-11-12T17:33:18.871Z,97466.59
2022-11-12T17:35:52.221Z,97463.13
2022-11-12T17:38:25.073Z,97455.09
2022-11-12T17:40:59.708Z,97456.66
2022-11-12T17:43:32.632Z,97445.75
2022-11-12T17:46:06.996Z,97450.50
2022-11-12T17:48:40.083Z,97457.78
2022-11-12T17:51:16.321Z,97442.78
2022-11-12T17:53:49.545Z,97448.75
2022-11-12T17:56:24.738Z,97443.38
2022-11-12T17:58:57.575Z,97450.94
2022-11-12T18:01:32.960Z,97443.25
2022-11-12T18:04:06.360Z,97444.94
2022-11-12T18:06:39.390Z,97443.66
2022-11-12T18:09:15.553Z,97442.88
2022-11-12T18:11:54.182Z,97434.03
2022-11-12T18:14:27.013Z,97440.84
2022-11-12T18:17:01.420Z,97443.97
2022-11-12T18:19:34.512Z,97441.16
2022-11-12T18:22:08.733Z,97449.69
2022-11-12T18:24:41.619Z,97443.53
2022-11-12T18:27:16.591Z,97433.59
2022-11-12T18:29:50.748Z,97427.44
2022-11-12T18:32:26.031Z,97429.63
2022-11-12T18:34:58.878Z,97425.66
2022-11-12T18:37:31.825Z,97421.41
2022-11-12T18:40:05.282Z,97423.63
2022-11-12T18:42:39.580Z,97420.94
2022-11-12T18:45:12.582Z,97415.59
2022-11-12T18:47:46.534Z,97417.78
2022-11-12T18:50:22.264Z,97408.16
2022-11-12T18:52:55.501Z,97404.19
2022-11-12T18:55:28.313Z,97407.97
2022-11-12T18:58:02.537Z,97404.84
2022-11-12T19:00:38.487Z,97407.31
2022-11-12T19:03:12.323Z,97397.69
2022-11-12T19:05:47.897Z,97400.66
2022-11-12T19:08:24.061Z,97398.63
2022-11-12T19:11:05.245Z,97397.66
2022-11-12T19:13:41.810Z,97394.81
2022-11-12T19:16:17.190Z,97401.59
2022-11-12T19:18:51.771Z,97396.03
2022-11-12T19:21:26.765Z,97403.13
2022-11-12T19:24:00.574Z,97393.81
2022-11-12T19:26:33.694Z,97389.38
2022-11-12T19:29:08.295Z,97387.03
2022-11-12T19:31:44.182Z,97388.44
2022-11-12T19:34:19.191Z,97382.88
2022-11-12T19:37:11.808Z,97386.19
2022-11-12T19:39:46.170Z,97380.97
2022-11-12T19:42:19.290Z,97388.53
2022-11-12T19:44:53.666Z,97387.84
2022-11-12T19:47:27.780Z,97384.22
2022-11-12T19:50:02.901Z,97377.59
2022-11-12T19:52:35.751Z,97382.31
2022-11-12T19:55:09.183Z,97382.91
2022-11-12T19:57:45.615Z,97392.34
2022-11-12T20:00:20.444Z,97394.84
2022-11-12T20:02:53.470Z,97389.91
2022-11-12T20:05:27.167Z,97383.31
2022-11-12T20:08:00.860Z,97386.88
2022-11-12T20:10:34.141Z,97373.63
2022-11-12T20:13:08.341Z,97380.38
2022-11-12T20:15:43.524Z,97377.22
2022-11-12T20:18:16.614Z,97375.16
2022-11-12T20:20:51.936Z,97378.94
2022-11-12T20:23:26.451Z,97378.44
2022-11-12T20:26:03.441Z,97364.28
2022-11-12T20:28:37.152Z,97366.44
2022-11-12T20:31:15.472Z,97361.88
2022-11-12T20:33:49.050Z,97359.22
2022-11-12T20:36:23.150Z,97368.03
2022-11-12T20:38:56.336Z,97355.16
2022-11-12T20:41:29.793Z,97355.94
2022-11-12T20:44:03.019Z,97356.25
2022-11-12T20:46:37.233Z,97357.81
2022-11-12T20:49:10.348Z,97363.97
2022-11-12T20:51:43.189Z,97357.03
2022-11-12T20:54:16.235Z,97354.06
2022-11-12T20:56:50.789Z,97349.97
2022-11-12T20:59:24.409Z,97340.53
2022-11-12T21:01:58.879Z,97339.13
2022-11-12T21:04:31.757Z,97330.50
2022-11-12T21:07:05.613Z,97324.22
2022-11-12T21:09:38.933Z,97326.59
2022-11-12T21:12:11.760Z,97324.09
2022-11-12T21:14:50.037Z,97324.75
2022-11-12T21:17:25.235Z,97312.94
2022-11-12T21:19:58.075Z,97311.50
2022-11-12T21:22:31.013Z,97314.38
2022-11-12T21:25:04.316Z,97312.19
2022-11-12T21:27:37.249Z,97307.31
2022-11-12T21:30:11.534Z,97312.81
2022-11-12T21:32:48.352Z,97315.50
2022-11-12T21:35:21.141Z,97307.78
2022-11-12T21:37:53.978Z,97306.69
2022-11-12T21:40:26.796Z,97304.00
2022-11-12T21:43:01.250Z,97308.25
2022-11-12T21:45:35.348Z,97300.06
2022-11-12T21:48:09.694Z,97293.13
2022-11-12T21:50:42.526Z,97290.75
2022-11-12T21:53:15.735Z,97295.94
2022-11-12T21:55:48.863Z,97297.03
2022-11-12T21:58:21.727Z,97287.75
2022-11-12T22:00:54.526Z,97283.47
2022-11-12T22:03:31.162Z,97278.91
2022-11-12T22:06:04.383Z,97277.16
2022-11-12T22:08:37.547Z,97275.56
2022-11-12T22:11:12.683Z,97274.78
2022-11-12T22:13:46.420Z,97272.88
2022-11-12T22:16:20.938Z,97270.53
2022-11-12T22:18:56.955Z,97269.13
2022-11-12T22:21:38.345Z,97254.78
2022-11-12T22:24:14.902Z,97252.09
2022-11-12T22:26:47.781Z,97244.88
2022-11-12T22:29:21.630Z,97246.44
2022-11-12T22:31:54.507Z,97243.78
2022-11-12T22:34:30.396Z,97251.16
2022-11-12T22:37:07.080Z,97251.00
2022-11-12T22:39:41.575Z,97251.00
2022-11-12T22:42:15.973Z,97242.97
2022-11-12T22:44:49.312Z,97235.84
2022-11-12T22:47:22.316Z,97235.38
2022-11-12T22:49:56.546Z,97236.81
2022-11-12T22:52:29.403Z,97232.06
2022-11-12T22:55:02.198Z,97226.06
2022-11-12T22:57:35.336Z,97221.13
2022-11-12T23:00:11.270Z,97214.03
2022-11-12T23:02:47.555Z,97219.53
2022-11-12T23:05:22.847Z,97209.75
2022-11-12T23:07:55.676Z,97208.00
2022-11-12T23:10:28.607Z,97204.53
2022-11-12T23:13:01.510Z,97203.75
2022-11-12T23:15:34.355Z,97202.47
2022-11-12T23:18:07.196Z,97194.44
2022-11-12T23:20:41.473Z,97200.28
2022-11-12T23:23:14.583Z,97207.22
2022-11-12T23:25:47.559Z,97194.63
2022-11-12T23:28:20.365Z,97188.50
2022-11-12T23:30:53.273Z,97190.06
2022-11-12T23:33:26.146Z,97179.81
2022-11-12T23:36:07.185Z,97177.16
2022-11-12T23:38:40.373Z,97167.09
2022-11-12T23:41:14.780Z,97171.66
2022-11-12T23:43:47.621Z,97167.69
2022-11-12T23:46:21.083Z,97180.56
2022-11-12T23:48:53.992Z,97170.19
2022-11-12T23:51:28.571Z,97174.44
2022-11-12T23:54:01.373Z,97165.16
2022-11-12T23:56:34.277Z,97175.88
2022-11-12T23:59:07.267Z,97161.38
